首页
METAR-TAF:

METAR-TAF

机场 :

兰州中川国际机场

兰州, 中华人民共和国

纬度: 36-02N, 经度: 103-52E, 海拔: 1518米

当前天气观测

该预报发布于30分钟前的08:00 UTC
风速4节,风向,在东转东南西之间变化
温度 25°C
湿度 32%
气压 1016 hPa
能见度10公里或以上
少量云层高于2300英尺

METAR: ZLLL 160800Z 18002MPS 120V260 9999 FEW023 25/07 Q1016 NOSIG

时间: 16:30 (08:30 UTC)

预报

该预报发布于5小时和29分钟前的03:01 UTC
预报有效从16日的 06点(UTC)到 17日的 06点(UTC)
风速6节,风向南转南东
能見度: 6000
短暂存在
从 16日的 07点(UTC)到 16日的 10点(UTC)
风速16节,风向
少量云层高于3000英尺, 积雨云.
散云层高于3300英尺
小阵雨,

TAF: ZLLL 160301Z 1606/1706 15003MPS 6000 NSC TX22/1607Z TN11/1622Z TEMPO 1607/1610 35008MPS -SHRA FEW030CB SCT033

超过4000个机场的气象观测和天气预报(METAR&TAF报告)。

可查询的气象台以黄色和红色小点在地图上表示。

将鼠标移到小点上方,可查看气象台名称。

然后点击查看天气观测和预报。

如需切换地图:点击带黑十字的绿色按钮放大地图;点击带横线的绿色按钮缩小地图;或者点击绿色箭头查看邻近地区的地图。


METAR-TAF: